Weather at Namao Airport [CLOSED]

Public forecast

Using degrees Celsius for public forecast. Weather courtesy of forecast.io.

Closest aviation weather report (METAR) to Namao Airport

Closest report is Edmonton (CFB Namao) Heliport, 0.9 nm (1.7 km) SSW. Retrieved 2020/09/29 00:00 UTC (42 minutes ago):

CYED 290000Z AUTO 26008KT 9SM FEW089 19/10 A2993 RMK SLP143

Closest aviation forecast (TAF) to Namao Airport

Closest forecast is Edmonton (CFB Namao) Heliport, 0.9 nm (1.7 km) SSW. Retrieved 2020-09-29 00:33 UTC (9 minutes ago):

TAF CYED 282330Z 2900/2912 29010G20KT P6SM SCT070 BKN130 OVC220 BECMG 2900/2902 29008KT FM290400 30008KT P6SM BKN070 OVC130 FM291000 32008KT P6SM OVC050 TEMPO 2910/2912 P6SM -RA RMK FCST BASED ON AUTO OBS NXT FCST BY 290600Z